sensor_id;sensor_type;location;lat;lon;timestamp;P1;durP1;ratioP1;P2;durP2;ratioP2
50555;SDS011;36508;52.512;13.450;2023-10-19T00:00:40;18.90;;;14.90;;
50555;SDS011;36508;52.512;13.450;2023-10-19T00:03:12;17.97;;;15.30;;
50555;SDS011;36508;52.512;13.450;2023-10-19T00:05:41;19.10;;;16.20;;
50555;SDS011;36508;52.512;13.450;2023-10-19T00:08:10;17.60;;;15.90;;
50555;SDS011;36508;52.512;13.450;2023-10-19T00:10:45;18.13;;;16.27;;
50555;SDS011;36508;52.512;13.450;2023-10-19T00:13:33;18.57;;;16.67;;
50555;SDS011;36508;52.512;13.450;2023-10-19T00:16:00;18.93;;;16.20;;
50555;SDS011;36508;52.512;13.450;2023-10-19T00:18:39;17.67;;;15.80;;
50555;SDS011;36508;52.512;13.450;2023-10-19T00:21:08;18.43;;;16.53;;
50555;SDS011;36508;52.512;13.450;2023-10-19T00:23:50;18.27;;;16.33;;
50555;SDS011;36508;52.512;13.450;2023-10-19T00:26:22;17.63;;;15.90;;
50555;SDS011;36508;52.512;13.450;2023-10-19T00:28:50;20.43;;;15.73;;
50555;SDS011;36508;52.512;13.450;2023-10-19T00:31:23;16.63;;;15.03;;
50555;SDS011;36508;52.512;13.450;2023-10-19T00:33:51;16.83;;;15.23;;
50555;SDS011;36508;52.512;13.450;2023-10-19T00:36:17;18.43;;;16.50;;
50555;SDS011;36508;52.512;13.450;2023-10-19T00:38:45;16.57;;;15.07;;
50555;SDS011;36508;52.512;13.450;2023-10-19T00:41:14;17.00;;;15.30;;
50555;SDS011;36508;52.512;13.450;2023-10-19T00:44:02;20.40;;;17.70;;
50555;SDS011;36508;52.512;13.450;2023-10-19T00:46:31;17.60;;;15.23;;
50555;SDS011;36508;52.512;13.450;2023-10-19T00:49:11;18.57;;;15.30;;
50555;SDS011;36508;52.512;13.450;2023-10-19T00:51:55;16.97;;;15.47;;
50555;SDS011;36508;52.512;13.450;2023-10-19T00:55:10;19.67;;;17.07;;
50555;SDS011;36508;52.512;13.450;2023-10-19T01:00:42;16.53;;;14.83;;
50555;SDS011;36508;52.512;13.450;2023-10-19T01:03:10;20.97;;;16.50;;
50555;SDS011;36508;52.512;13.450;2023-10-19T01:05:41;21.10;;;16.47;;
50555;SDS011;36508;52.512;13.450;2023-10-19T01:08:13;18.33;;;15.37;;
50555;SDS011;36508;52.512;13.450;2023-10-19T01:10:49;19.00;;;17.10;;
50555;SDS011;36508;52.512;13.450;2023-10-19T01:13:22;19.23;;;17.47;;
50555;SDS011;36508;52.512;13.450;2023-10-19T01:15:59;20.63;;;17.00;;
50555;SDS011;36508;52.512;13.450;2023-10-19T01:18:25;20.20;;;18.37;;
50555;SDS011;36508;52.512;13.450;2023-10-19T01:20:54;18.57;;;16.67;;
50555;SDS011;36508;52.512;13.450;2023-10-19T01:23:20;18.90;;;17.03;;
50555;SDS011;36508;52.512;13.450;2023-10-19T01:25:48;22.30;;;16.20;;
50555;SDS011;36508;52.512;13.450;2023-10-19T01:28:23;19.60;;;17.53;;
50555;SDS011;36508;52.512;13.450;2023-10-19T01:31:12;17.90;;;15.80;;
50555;SDS011;36508;52.512;13.450;2023-10-19T01:33:47;20.07;;;17.27;;
50555;SDS011;36508;52.512;13.450;2023-10-19T01:36:19;19.50;;;17.70;;
50555;SDS011;36508;52.512;13.450;2023-10-19T01:38:48;17.77;;;16.17;;
50555;SDS011;36508;52.512;13.450;2023-10-19T01:41:13;18.23;;;16.50;;
50555;SDS011;36508;52.512;13.450;2023-10-19T01:43:41;18.70;;;16.87;;
50555;SDS011;36508;52.512;13.450;2023-10-19T01:46:07;19.10;;;17.20;;
50555;SDS011;36508;52.512;13.450;2023-10-19T01:48:40;19.53;;;17.63;;
50555;SDS011;36508;52.512;13.450;2023-10-19T01:51:09;17.53;;;15.70;;
50555;SDS011;36508;52.512;13.450;2023-10-19T01:53:39;19.97;;;17.83;;
50555;SDS011;36508;52.512;13.450;2023-10-19T01:56:09;17.93;;;16.20;;
50555;SDS011;36508;52.512;13.450;2023-10-19T01:58:37;19.80;;;17.80;;
50555;SDS011;36508;52.512;13.450;2023-10-19T02:01:04;22.07;;;20.17;;
50555;SDS011;36508;52.512;13.450;2023-10-19T02:03:43;22.93;;;20.43;;
50555;SDS011;36508;52.512;13.450;2023-10-19T02:06:10;22.23;;;18.43;;
50555;SDS011;36508;52.512;13.450;2023-10-19T02:08:49;20.77;;;18.60;;
50555;SDS011;36508;52.512;13.450;2023-10-19T02:11:21;19.83;;;17.50;;
50555;SDS011;36508;52.512;13.450;2023-10-19T02:13:53;19.97;;;17.87;;
50555;SDS011;36508;52.512;13.450;2023-10-19T02:16:25;22.77;;;20.33;;
50555;SDS011;36508;52.512;13.450;2023-10-19T02:18:54;18.50;;;16.70;;
50555;SDS011;36508;52.512;13.450;2023-10-19T02:21:20;21.63;;;19.73;;
50555;SDS011;36508;52.512;13.450;2023-10-19T02:23:54;19.73;;;17.77;;
50555;SDS011;36508;52.512;13.450;2023-10-19T02:26:20;19.93;;;17.90;;
50555;SDS011;36508;52.512;13.450;2023-10-19T02:28:51;21.47;;;19.43;;
50555;SDS011;36508;52.512;13.450;2023-10-19T02:31:17;18.97;;;17.17;;
50555;SDS011;36508;52.512;13.450;2023-10-19T02:33:48;23.20;;;19.67;;
50555;SDS011;36508;52.512;13.450;2023-10-19T02:36:24;21.27;;;18.73;;
50555;SDS011;36508;52.512;13.450;2023-10-19T02:38:53;18.73;;;17.03;;
50555;SDS011;36508;52.512;13.450;2023-10-19T02:41:19;21.40;;;19.30;;
50555;SDS011;36508;52.512;13.450;2023-10-19T02:43:45;21.27;;;19.23;;
50555;SDS011;36508;52.512;13.450;2023-10-19T02:46:27;22.13;;;16.33;;
50555;SDS011;36508;52.512;13.450;2023-10-19T02:48:54;19.53;;;17.30;;
50555;SDS011;36508;52.512;13.450;2023-10-19T02:51:19;19.30;;;17.40;;
50555;SDS011;36508;52.512;13.450;2023-10-19T02:53:51;20.17;;;18.10;;
50555;SDS011;36508;52.512;13.450;2023-10-19T02:56:18;20.50;;;18.50;;
50555;SDS011;36508;52.512;13.450;2023-10-19T02:58:44;22.70;;;19.57;;
50555;SDS011;36508;52.512;13.450;2023-10-19T03:01:17;21.33;;;18.53;;
50555;SDS011;36508;52.512;13.450;2023-10-19T03:03:48;22.37;;;17.60;;
50555;SDS011;36508;52.512;13.450;2023-10-19T03:06:22;20.27;;;18.30;;
50555;SDS011;36508;52.512;13.450;2023-10-19T03:08:48;23.30;;;18.07;;
50555;SDS011;36508;52.512;13.450;2023-10-19T03:11:23;20.90;;;18.80;;
50555;SDS011;36508;52.512;13.450;2023-10-19T03:13:50;20.07;;;18.10;;
50555;SDS011;36508;52.512;13.450;2023-10-19T03:16:17;22.63;;;20.30;;
50555;SDS011;36508;52.512;13.450;2023-10-19T03:18:44;20.67;;;18.60;;
50555;SDS011;36508;52.512;13.450;2023-10-19T03:21:09;19.00;;;17.10;;
50555;SDS011;36508;52.512;13.450;2023-10-19T03:23:36;21.27;;;18.80;;
50555;SDS011;36508;52.512;13.450;2023-10-19T03:26:03;18.67;;;16.60;;
50555;SDS011;36508;52.512;13.450;2023-10-19T03:28:48;17.47;;;15.87;;
50555;SDS011;36508;52.512;13.450;2023-10-19T03:31:19;26.37;;;19.87;;
50555;SDS011;36508;52.512;13.450;2023-10-19T03:33:50;20.67;;;18.70;;
50555;SDS011;36508;52.512;13.450;2023-10-19T03:36:25;19.83;;;17.67;;
50555;SDS011;36508;52.512;13.450;2023-10-19T03:38:51;20.40;;;18.20;;
50555;SDS011;36508;52.512;13.450;2023-10-19T03:41:19;22.33;;;20.10;;
50555;SDS011;36508;52.512;13.450;2023-10-19T03:43:53;20.63;;;18.73;;
50555;SDS011;36508;52.512;13.450;2023-10-19T03:46:22;21.03;;;18.90;;
50555;SDS011;36508;52.512;13.450;2023-10-19T03:48:56;21.03;;;18.90;;
50555;SDS011;36508;52.512;13.450;2023-10-19T03:51:36;25.87;;;22.17;;
50555;SDS011;36508;52.512;13.450;2023-10-19T03:54:14;32.20;;;19.47;;
50555;SDS011;36508;52.512;13.450;2023-10-19T03:56:49;23.03;;;20.03;;
50555;SDS011;36508;52.512;13.450;2023-10-19T03:59:18;25.17;;;18.80;;
50555;SDS011;36508;52.512;13.450;2023-10-19T04:01:45;22.70;;;20.30;;
50555;SDS011;36508;52.512;13.450;2023-10-19T04:04:12;25.97;;;20.27;;
50555;SDS011;36508;52.512;13.450;2023-10-19T04:06:38;23.70;;;19.60;;
50555;SDS011;36508;52.512;13.450;2023-10-19T04:09:05;23.03;;;20.83;;
50555;SDS011;36508;52.512;13.450;2023-10-19T04:11:40;22.00;;;20.00;;
50555;SDS011;36508;52.512;13.450;2023-10-19T04:14:18;20.50;;;18.47;;
50555;SDS011;36508;52.512;13.450;2023-10-19T04:16:45;26.10;;;20.23;;
50555;SDS011;36508;52.512;13.450;2023-10-19T04:19:13;23.80;;;21.00;;
50555;SDS011;36508;52.512;13.450;2023-10-19T04:21:40;23.70;;;19.17;;
50555;SDS011;36508;52.512;13.450;2023-10-19T04:24:19;22.90;;;19.07;;
50555;SDS011;36508;52.512;13.450;2023-10-19T04:26:57;23.97;;;21.67;;
50555;SDS011;36508;52.512;13.450;2023-10-19T04:29:26;21.47;;;19.47;;
50555;SDS011;36508;52.512;13.450;2023-10-19T04:31:52;21.83;;;19.60;;
50555;SDS011;36508;52.512;13.450;2023-10-19T04:34:24;25.53;;;21.43;;
50555;SDS011;36508;52.512;13.450;2023-10-19T04:36:52;22.87;;;20.47;;
50555;SDS011;36508;52.512;13.450;2023-10-19T04:39:18;23.47;;;21.03;;
50555;SDS011;36508;52.512;13.450;2023-10-19T04:41:45;23.00;;;19.90;;
50555;SDS011;36508;52.512;13.450;2023-10-19T04:44:15;28.50;;;21.07;;
50555;SDS011;36508;52.512;13.450;2023-10-19T04:46:41;28.03;;;20.67;;
50555;SDS011;36508;52.512;13.450;2023-10-19T04:49:07;21.77;;;19.50;;
50555;SDS011;36508;52.512;13.450;2023-10-19T04:51:34;24.63;;;22.13;;
50555;SDS011;36508;52.512;13.450;2023-10-19T04:54:04;24.47;;;21.87;;
50555;SDS011;36508;52.512;13.450;2023-10-19T04:56:30;27.37;;;24.67;;
50555;SDS011;36508;52.512;13.450;2023-10-19T04:58:57;24.43;;;21.87;;
50555;SDS011;36508;52.512;13.450;2023-10-19T05:01:22;24.60;;;22.00;;
50555;SDS011;36508;52.512;13.450;2023-10-19T05:03:48;25.53;;;22.93;;
50555;SDS011;36508;52.512;13.450;2023-10-19T05:06:14;24.60;;;22.03;;
50555;SDS011;36508;52.512;13.450;2023-10-19T05:08:40;27.53;;;21.43;;
50555;SDS011;36508;52.512;13.450;2023-10-19T05:11:05;23.53;;;21.00;;
50555;SDS011;36508;52.512;13.450;2023-10-19T05:13:31;23.40;;;21.03;;
50555;SDS011;36508;52.512;13.450;2023-10-19T05:15:58;24.40;;;21.87;;
50555;SDS011;36508;52.512;13.450;2023-10-19T05:18:24;23.77;;;21.20;;
50555;SDS011;36508;52.512;13.450;2023-10-19T05:20:51;24.07;;;21.33;;
50555;SDS011;36508;52.512;13.450;2023-10-19T05:23:21;32.90;;;22.13;;
50555;SDS011;36508;52.512;13.450;2023-10-19T05:26:00;23.10;;;20.77;;
50555;SDS011;36508;52.512;13.450;2023-10-19T05:28:27;23.40;;;20.50;;
50555;SDS011;36508;52.512;13.450;2023-10-19T05:30:53;24.97;;;22.17;;
50555;SDS011;36508;52.512;13.450;2023-10-19T05:33:19;24.83;;;22.30;;
50555;SDS011;36508;52.512;13.450;2023-10-19T05:35:46;25.63;;;21.90;;
50555;SDS011;36508;52.512;13.450;2023-10-19T05:38:12;26.07;;;22.50;;
50555;SDS011;36508;52.512;13.450;2023-10-19T05:40:38;24.47;;;21.93;;
50555;SDS011;36508;52.512;13.450;2023-10-19T05:43:06;28.80;;;24.17;;
50555;SDS011;36508;52.512;13.450;2023-10-19T05:45:32;25.90;;;22.23;;
50555;SDS011;36508;52.512;13.450;2023-10-19T05:48:01;28.00;;;24.53;;
50555;SDS011;36508;52.512;13.450;2023-10-19T05:50:29;25.93;;;23.20;;
50555;SDS011;36508;52.512;13.450;2023-10-19T05:52:55;25.37;;;23.03;;
50555;SDS011;36508;52.512;13.450;2023-10-19T05:55:21;29.60;;;25.27;;
50555;SDS011;36508;52.512;13.450;2023-10-19T05:57:47;27.27;;;24.27;;
50555;SDS011;36508;52.512;13.450;2023-10-19T06:00:14;28.63;;;25.93;;
50555;SDS011;36508;52.512;13.450;2023-10-19T06:02:44;27.00;;;24.17;;
50555;SDS011;36508;52.512;13.450;2023-10-19T06:05:12;27.10;;;24.40;;
50555;SDS011;36508;52.512;13.450;2023-10-19T06:07:45;24.90;;;22.43;;
50555;SDS011;36508;52.512;13.450;2023-10-19T06:10:21;26.27;;;22.70;;
50555;SDS011;36508;52.512;13.450;2023-10-19T06:12:48;25.20;;;22.60;;
50555;SDS011;36508;52.512;13.450;2023-10-19T06:15:16;26.43;;;22.97;;
50555;SDS011;36508;52.512;13.450;2023-10-19T06:17:43;26.40;;;23.67;;
50555;SDS011;36508;52.512;13.450;2023-10-19T06:20:13;26.60;;;23.80;;
50555;SDS011;36508;52.512;13.450;2023-10-19T06:22:49;30.23;;;27.30;;
50555;SDS011;36508;52.512;13.450;2023-10-19T06:25:17;27.10;;;24.20;;
50555;SDS011;36508;52.512;13.450;2023-10-19T06:27:43;28.60;;;25.63;;
50555;SDS011;36508;52.512;13.450;2023-10-19T06:30:09;31.83;;;27.27;;
50555;SDS011;36508;52.512;13.450;2023-10-19T06:32:38;28.10;;;25.33;;
50555;SDS011;36508;52.512;13.450;2023-10-19T06:35:04;31.30;;;27.70;;
50555;SDS011;36508;52.512;13.450;2023-10-19T06:37:33;28.43;;;24.97;;
50555;SDS011;36508;52.512;13.450;2023-10-19T06:39:59;26.70;;;24.20;;
50555;SDS011;36508;52.512;13.450;2023-10-19T06:42:24;30.77;;;27.73;;
50555;SDS011;36508;52.512;13.450;2023-10-19T06:44:50;26.30;;;23.70;;
50555;SDS011;36508;52.512;13.450;2023-10-19T06:47:18;29.27;;;26.30;;
50555;SDS011;36508;52.512;13.450;2023-10-19T06:49:48;25.87;;;23.13;;
50555;SDS011;36508;52.512;13.450;2023-10-19T06:52:21;26.30;;;23.83;;
50555;SDS011;36508;52.512;13.450;2023-10-19T06:54:49;29.93;;;26.07;;
50555;SDS011;36508;52.512;13.450;2023-10-19T06:57:15;30.07;;;26.43;;
50555;SDS011;36508;52.512;13.450;2023-10-19T06:59:41;27.47;;;23.80;;
50555;SDS011;36508;52.512;13.450;2023-10-19T07:02:08;30.70;;;25.30;;
50555;SDS011;36508;52.512;13.450;2023-10-19T07:04:34;27.60;;;24.87;;
50555;SDS011;36508;52.512;13.450;2023-10-19T07:07:08;27.40;;;24.50;;
50555;SDS011;36508;52.512;13.450;2023-10-19T07:09:34;26.47;;;23.67;;
50555;SDS011;36508;52.512;13.450;2023-10-19T07:11:59;25.53;;;22.87;;
50555;SDS011;36508;52.512;13.450;2023-10-19T07:14:26;30.30;;;24.97;;
50555;SDS011;36508;52.512;13.450;2023-10-19T07:16:52;26.33;;;23.77;;
50555;SDS011;36508;52.512;13.450;2023-10-19T07:19:17;26.40;;;23.70;;
50555;SDS011;36508;52.512;13.450;2023-10-19T07:21:44;27.10;;;24.33;;
50555;SDS011;36508;52.512;13.450;2023-10-19T07:24:16;28.63;;;25.63;;
50555;SDS011;36508;52.512;13.450;2023-10-19T07:26:48;29.43;;;22.53;;
50555;SDS011;36508;52.512;13.450;2023-10-19T07:46:56;24.67;;;22.20;;
50555;SDS011;36508;52.512;13.450;2023-10-19T08:16:16;25.60;;;23.00;;
50555;SDS011;36508;52.512;13.450;2023-10-19T08:19:03;28.20;;;24.47;;
50555;SDS011;36508;52.512;13.450;2023-10-19T08:25:23;24.53;;;22.07;;
50555;SDS011;36508;52.512;13.450;2023-10-19T08:57:19;23.80;;;21.47;;
50555;SDS011;36508;52.512;13.450;2023-10-19T09:14:05;23.63;;;21.07;;
50555;SDS011;36508;52.512;13.450;2023-10-19T09:20:19;30.40;;;27.40;;
50555;SDS011;36508;52.512;13.450;2023-10-19T09:26:32;24.17;;;21.57;;
50555;SDS011;36508;52.512;13.450;2023-10-19T09:29:08;26.10;;;22.90;;
50555;SDS011;36508;52.512;13.450;2023-10-19T09:51:52;22.80;;;20.50;;
50555;SDS011;36508;52.512;13.450;2023-10-19T10:47:34;24.97;;;22.63;;
50555;SDS011;36508;52.512;13.450;2023-10-19T10:50:02;26.47;;;23.70;;
50555;SDS011;36508;52.512;13.450;2023-10-19T10:55:50;22.47;;;20.40;;
50555;SDS011;36508;52.512;13.450;2023-10-19T10:58:35;26.43;;;23.20;;
50555;SDS011;36508;52.512;13.450;2023-10-19T11:01:01;32.60;;;24.87;;
50555;SDS011;36508;52.512;13.450;2023-10-19T11:03:37;26.17;;;23.83;;
50555;SDS011;36508;52.512;13.450;2023-10-19T11:06:06;26.23;;;23.40;;
50555;SDS011;36508;52.512;13.450;2023-10-19T11:08:35;25.20;;;22.60;;
50555;SDS011;36508;52.512;13.450;2023-10-19T11:11:02;23.90;;;21.73;;
50555;SDS011;36508;52.512;13.450;2023-10-19T11:13:37;24.20;;;21.60;;
50555;SDS011;36508;52.512;13.450;2023-10-19T11:16:08;25.80;;;23.13;;
50555;SDS011;36508;52.512;13.450;2023-10-19T11:18:58;26.97;;;24.17;;
50555;SDS011;36508;52.512;13.450;2023-10-19T11:21:53;25.10;;;22.80;;
50555;SDS011;36508;52.512;13.450;2023-10-19T11:24:40;26.27;;;23.40;;
50555;SDS011;36508;52.512;13.450;2023-10-19T11:33:05;28.27;;;25.57;;
50555;SDS011;36508;52.512;13.450;2023-10-19T11:35:31;29.80;;;23.00;;
50555;SDS011;36508;52.512;13.450;2023-10-19T11:54:33;27.43;;;24.07;;
50555;SDS011;36508;52.512;13.450;2023-10-19T12:03:47;30.90;;;27.77;;
50555;SDS011;36508;52.512;13.450;2023-10-19T12:06:13;29.27;;;26.47;;
50555;SDS011;36508;52.512;13.450;2023-10-19T12:08:49;31.80;;;28.67;;
50555;SDS011;36508;52.512;13.450;2023-10-19T12:11:14;28.60;;;25.93;;
50555;SDS011;36508;52.512;13.450;2023-10-19T12:13:41;28.83;;;25.90;;
50555;SDS011;36508;52.512;13.450;2023-10-19T12:16:32;31.30;;;28.03;;
50555;SDS011;36508;52.512;13.450;2023-10-19T12:19:20;30.70;;;27.77;;
50555;SDS011;36508;52.512;13.450;2023-10-19T12:46:06;30.00;;;27.20;;
50555;SDS011;36508;52.512;13.450;2023-10-19T12:51:43;27.77;;;24.77;;
50555;SDS011;36508;52.512;13.450;2023-10-19T13:05:14;30.80;;;27.50;;
50555;SDS011;36508;52.512;13.450;2023-10-19T13:21:43;29.63;;;26.77;;
50555;SDS011;36508;52.512;13.450;2023-10-19T13:24:08;30.63;;;27.53;;
50555;SDS011;36508;52.512;13.450;2023-10-19T13:26:35;29.83;;;26.70;;
50555;SDS011;36508;52.512;13.450;2023-10-19T13:29:00;31.80;;;27.83;;
50555;SDS011;36508;52.512;13.450;2023-10-19T13:31:27;31.17;;;25.80;;
50555;SDS011;36508;52.512;13.450;2023-10-19T13:33:52;27.77;;;25.30;;
50555;SDS011;36508;52.512;13.450;2023-10-19T13:36:19;32.17;;;26.53;;
50555;SDS011;36508;52.512;13.450;2023-10-19T13:38:45;30.97;;;27.37;;
50555;SDS011;36508;52.512;13.450;2023-10-19T13:41:10;29.53;;;26.77;;
50555;SDS011;36508;52.512;13.450;2023-10-19T13:43:37;30.07;;;27.03;;
50555;SDS011;36508;52.512;13.450;2023-10-19T13:46:03;31.50;;;28.40;;
50555;SDS011;36508;52.512;13.450;2023-10-19T13:48:30;31.33;;;28.30;;
50555;SDS011;36508;52.512;13.450;2023-10-19T13:50:57;31.17;;;28.17;;
50555;SDS011;36508;52.512;13.450;2023-10-19T13:53:30;32.67;;;29.17;;
50555;SDS011;36508;52.512;13.450;2023-10-19T13:55:56;31.13;;;28.07;;
50555;SDS011;36508;52.512;13.450;2023-10-19T13:58:21;29.23;;;26.43;;
50555;SDS011;36508;52.512;13.450;2023-10-19T14:00:48;30.43;;;27.30;;
50555;SDS011;36508;52.512;13.450;2023-10-19T14:03:14;32.37;;;29.13;;
50555;SDS011;36508;52.512;13.450;2023-10-19T14:05:46;34.13;;;30.60;;
50555;SDS011;36508;52.512;13.450;2023-10-19T14:08:16;35.13;;;31.90;;
50555;SDS011;36508;52.512;13.450;2023-10-19T14:10:42;34.80;;;31.10;;
50555;SDS011;36508;52.512;13.450;2023-10-19T14:13:08;32.90;;;28.30;;
50555;SDS011;36508;52.512;13.450;2023-10-19T14:15:36;32.03;;;28.83;;
50555;SDS011;36508;52.512;13.450;2023-10-19T14:18:02;31.43;;;28.47;;
50555;SDS011;36508;52.512;13.450;2023-10-19T14:20:29;32.63;;;29.33;;
50555;SDS011;36508;52.512;13.450;2023-10-19T14:22:55;38.40;;;30.87;;
50555;SDS011;36508;52.512;13.450;2023-10-19T14:25:21;33.10;;;29.47;;
50555;SDS011;36508;52.512;13.450;2023-10-19T14:27:48;30.63;;;27.43;;
50555;SDS011;36508;52.512;13.450;2023-10-19T14:30:17;30.17;;;27.30;;
50555;SDS011;36508;52.512;13.450;2023-10-19T14:32:47;33.00;;;29.43;;
50555;SDS011;36508;52.512;13.450;2023-10-19T14:35:14;32.97;;;29.67;;
50555;SDS011;36508;52.512;13.450;2023-10-19T14:37:44;32.43;;;29.43;;
50555;SDS011;36508;52.512;13.450;2023-10-19T14:40:18;31.40;;;28.57;;
50555;SDS011;36508;52.512;13.450;2023-10-19T14:42:46;29.63;;;26.73;;
50555;SDS011;36508;52.512;13.450;2023-10-19T14:45:13;32.07;;;28.80;;
50555;SDS011;36508;52.512;13.450;2023-10-19T14:47:51;31.63;;;28.43;;
50555;SDS011;36508;52.512;13.450;2023-10-19T14:50:21;33.00;;;29.70;;
50555;SDS011;36508;52.512;13.450;2023-10-19T14:52:48;31.17;;;27.83;;
50555;SDS011;36508;52.512;13.450;2023-10-19T14:55:15;32.57;;;29.33;;
50555;SDS011;36508;52.512;13.450;2023-10-19T14:57:42;33.40;;;30.27;;
50555;SDS011;36508;52.512;13.450;2023-10-19T15:00:10;32.70;;;29.20;;
50555;SDS011;36508;52.512;13.450;2023-10-19T15:02:50;33.03;;;29.80;;
50555;SDS011;36508;52.512;13.450;2023-10-19T15:05:19;35.50;;;31.60;;
50555;SDS011;36508;52.512;13.450;2023-10-19T15:07:49;33.37;;;30.03;;
50555;SDS011;36508;52.512;13.450;2023-10-19T15:10:41;34.80;;;30.53;;
50555;SDS011;36508;52.512;13.450;2023-10-19T15:13:07;31.20;;;28.10;;
50555;SDS011;36508;52.512;13.450;2023-10-19T15:15:33;32.63;;;27.03;;
50555;SDS011;36508;52.512;13.450;2023-10-19T15:17:59;32.07;;;28.77;;
50555;SDS011;36508;52.512;13.450;2023-10-19T15:20:25;33.53;;;30.17;;
50555;SDS011;36508;52.512;13.450;2023-10-19T15:22:51;32.60;;;29.40;;
50555;SDS011;36508;52.512;13.450;2023-10-19T15:25:19;32.27;;;29.13;;
50555;SDS011;36508;52.512;13.450;2023-10-19T15:27:46;41.07;;;37.33;;
50555;SDS011;36508;52.512;13.450;2023-10-19T15:30:13;39.77;;;35.57;;
50555;SDS011;36508;52.512;13.450;2023-10-19T15:32:40;31.60;;;28.50;;
50555;SDS011;36508;52.512;13.450;2023-10-19T15:35:09;37.77;;;34.10;;
50555;SDS011;36508;52.512;13.450;2023-10-19T15:37:36;33.83;;;30.33;;
50555;SDS011;36508;52.512;13.450;2023-10-19T15:40:03;36.50;;;32.83;;
50555;SDS011;36508;52.512;13.450;2023-10-19T15:42:29;37.50;;;33.37;;
50555;SDS011;36508;52.512;13.450;2023-10-19T15:44:55;36.30;;;32.63;;
50555;SDS011;36508;52.512;13.450;2023-10-19T15:47:21;32.40;;;29.40;;
50555;SDS011;36508;52.512;13.450;2023-10-19T15:49:52;37.70;;;33.83;;
50555;SDS011;36508;52.512;13.450;2023-10-19T15:52:22;38.67;;;34.67;;
50555;SDS011;36508;52.512;13.450;2023-10-19T15:54:49;35.93;;;32.20;;
50555;SDS011;36508;52.512;13.450;2023-10-19T15:57:16;32.20;;;29.10;;
50555;SDS011;36508;52.512;13.450;2023-10-19T15:59:42;33.00;;;30.10;;
50555;SDS011;36508;52.512;13.450;2023-10-19T16:02:09;39.33;;;34.47;;
50555;SDS011;36508;52.512;13.450;2023-10-19T16:04:41;36.83;;;33.27;;
50555;SDS011;36508;52.512;13.450;2023-10-19T16:07:08;34.70;;;31.20;;
50555;SDS011;36508;52.512;13.450;2023-10-19T16:09:35;38.93;;;34.10;;
50555;SDS011;36508;52.512;13.450;2023-10-19T16:12:01;36.20;;;32.50;;
50555;SDS011;36508;52.512;13.450;2023-10-19T16:14:26;34.60;;;31.17;;
50555;SDS011;36508;52.512;13.450;2023-10-19T16:16:52;39.60;;;35.80;;
50555;SDS011;36508;52.512;13.450;2023-10-19T16:19:17;37.57;;;33.67;;
50555;SDS011;36508;52.512;13.450;2023-10-19T16:21:43;36.43;;;33.07;;
50555;SDS011;36508;52.512;13.450;2023-10-19T16:24:09;43.33;;;37.83;;
50555;SDS011;36508;52.512;13.450;2023-10-19T16:26:36;39.63;;;35.77;;
50555;SDS011;36508;52.512;13.450;2023-10-19T16:29:02;34.70;;;31.27;;
50555;SDS011;36508;52.512;13.450;2023-10-19T16:31:31;33.37;;;30.07;;
50555;SDS011;36508;52.512;13.450;2023-10-19T16:33:57;37.50;;;33.73;;
50555;SDS011;36508;52.512;13.450;2023-10-19T16:36:23;47.53;;;42.77;;
50555;SDS011;36508;52.512;13.450;2023-10-19T16:38:52;33.60;;;30.40;;
50555;SDS011;36508;52.512;13.450;2023-10-19T16:41:17;36.40;;;32.80;;
50555;SDS011;36508;52.512;13.450;2023-10-19T16:43:43;34.40;;;30.73;;
50555;SDS011;36508;52.512;13.450;2023-10-19T16:46:09;32.60;;;29.60;;
50555;SDS011;36508;52.512;13.450;2023-10-19T16:48:35;39.00;;;34.80;;
50555;SDS011;36508;52.512;13.450;2023-10-19T16:51:01;38.13;;;34.40;;
50555;SDS011;36508;52.512;13.450;2023-10-19T16:53:27;38.73;;;34.50;;
50555;SDS011;36508;52.512;13.450;2023-10-19T16:56:02;35.10;;;31.40;;
50555;SDS011;36508;52.512;13.450;2023-10-19T16:58:29;33.73;;;30.13;;
50555;SDS011;36508;52.512;13.450;2023-10-19T17:00:55;35.73;;;32.30;;
50555;SDS011;36508;52.512;13.450;2023-10-19T17:03:21;32.60;;;29.37;;
50555;SDS011;36508;52.512;13.450;2023-10-19T17:05:47;34.03;;;30.67;;
50555;SDS011;36508;52.512;13.450;2023-10-19T17:08:13;32.50;;;29.20;;
50555;SDS011;36508;52.512;13.450;2023-10-19T17:10:39;36.50;;;31.80;;
50555;SDS011;36508;52.512;13.450;2023-10-19T17:13:05;36.40;;;30.33;;
50555;SDS011;36508;52.512;13.450;2023-10-19T17:15:30;32.63;;;29.47;;
50555;SDS011;36508;52.512;13.450;2023-10-19T17:17:58;33.33;;;30.10;;
50555;SDS011;36508;52.512;13.450;2023-10-19T17:20:25;31.27;;;28.10;;
50555;SDS011;36508;52.512;13.450;2023-10-19T17:22:52;34.10;;;30.73;;
50555;SDS011;36508;52.512;13.450;2023-10-19T17:25:19;33.47;;;30.10;;
50555;SDS011;36508;52.512;13.450;2023-10-19T17:27:45;33.03;;;29.80;;
50555;SDS011;36508;52.512;13.450;2023-10-19T17:30:11;32.50;;;29.40;;
50555;SDS011;36508;52.512;13.450;2023-10-19T17:32:40;33.40;;;30.30;;
50555;SDS011;36508;52.512;13.450;2023-10-19T17:35:08;31.53;;;28.40;;
50555;SDS011;36508;52.512;13.450;2023-10-19T17:37:33;30.70;;;27.80;;
50555;SDS011;36508;52.512;13.450;2023-10-19T17:40:00;30.07;;;26.87;;
50555;SDS011;36508;52.512;13.450;2023-10-19T17:42:26;30.23;;;27.40;;
50555;SDS011;36508;52.512;13.450;2023-10-19T17:44:53;31.33;;;28.33;;
50555;SDS011;36508;52.512;13.450;2023-10-19T17:47:19;30.20;;;27.40;;
50555;SDS011;36508;52.512;13.450;2023-10-19T17:49:45;27.03;;;24.53;;
50555;SDS011;36508;52.512;13.450;2023-10-19T17:52:11;28.20;;;25.50;;
50555;SDS011;36508;52.512;13.450;2023-10-19T17:54:38;29.30;;;26.57;;
50555;SDS011;36508;52.512;13.450;2023-10-19T17:57:04;29.10;;;26.07;;
50555;SDS011;36508;52.512;13.450;2023-10-19T17:59:29;27.27;;;24.63;;
50555;SDS011;36508;52.512;13.450;2023-10-19T18:01:55;28.33;;;25.73;;
50555;SDS011;36508;52.512;13.450;2023-10-19T18:04:21;26.30;;;23.70;;
50555;SDS011;36508;52.512;13.450;2023-10-19T18:06:46;25.50;;;23.20;;
50555;SDS011;36508;52.512;13.450;2023-10-19T18:09:12;31.17;;;27.80;;
50555;SDS011;36508;52.512;13.450;2023-10-19T18:11:38;26.80;;;24.30;;
50555;SDS011;36508;52.512;13.450;2023-10-19T18:14:03;27.43;;;24.90;;
50555;SDS011;36508;52.512;13.450;2023-10-19T18:16:29;26.97;;;24.33;;
50555;SDS011;36508;52.512;13.450;2023-10-19T18:18:56;33.93;;;30.57;;
50555;SDS011;36508;52.512;13.450;2023-10-19T18:21:22;28.47;;;25.87;;
50555;SDS011;36508;52.512;13.450;2023-10-19T18:23:48;25.83;;;23.60;;
50555;SDS011;36508;52.512;13.450;2023-10-19T18:26:14;26.30;;;24.00;;
50555;SDS011;36508;52.512;13.450;2023-10-19T18:28:44;23.17;;;21.00;;
50555;SDS011;36508;52.512;13.450;2023-10-19T18:31:10;26.60;;;24.20;;
50555;SDS011;36508;52.512;13.450;2023-10-19T18:33:35;22.57;;;20.57;;
50555;SDS011;36508;52.512;13.450;2023-10-19T18:36:02;26.60;;;23.97;;
50555;SDS011;36508;52.512;13.450;2023-10-19T18:38:31;23.90;;;21.80;;
50555;SDS011;36508;52.512;13.450;2023-10-19T18:40:59;19.40;;;17.70;;